Flight Track Log - Related Links

Times and Time Zones

All times are in EDT time to prevent confusion due to time zone crossing. See the LOF3503 flight status page for this flight to view local times or setup timezone preferences in your user account.

Time Position Orientation Groundspeed Altitude Reporting Facility
EDT Latitude Longitude Course Direction KTS MPH feet Rate Location/Type
Wed 06:55:40 AM 41.9464 -72.6767 61° Northeast 117 135 700  Level Boston Center
Wed 06:56:20 AM 41.9633 -72.6350 61° Northeast 172 198 2,400 2,614 Climbing Boston Center
Wed 06:57:21 AM 41.9881 -72.5625 65° Northeast 219 252 5,100 2,656 Climbing Boston Center
Wed 06:58:22 AM 42.0372 -72.5922 336° Northwest 210 242 7,800 2,361 Climbing Boston Center
Wed 06:59:23 AM 42.0833 -72.6536 315° West 234 269 9,900 2,066 Climbing Boston Center
Wed 07:00:24 AM 42.1342 -72.7247 314° West 263 303 12,000 2,182 Climbing Boston Center
Wed 07:01:24 AM 42.1858 -72.7986 313° West 269 310 14,300 2,281 Climbing Boston Center
Wed 07:02:25 AM 42.2375 -72.8728 313° West 271 312 16,600 2,262 Climbing Boston Center
Wed 07:03:26 AM 42.2856 -72.9547 308° West 257 296 18,900 1,918 Climbing Boston Center
Wed 07:04:27 AM 42.2853 -73.0278 270° West 245 282 20,500 1,820 Climbing Boston Center
Wed 07:05:28 AM 42.2769 -73.1192 263° West 244 281 22,600 2,213 Climbing Boston Center
Wed 07:06:29 AM 42.2678 -73.2267 263° West 243 280 25,000 1,967 Climbing Boston Center
Wed 07:07:30 AM 42.2600 -73.3156 263° West 241 277 26,600 1,388 Climbing Boston Center
Wed 07:08:30 AM 42.2528 -73.3958 263° West 241 277 27,800 694 Climbing Boston Center
Wed 07:09:31 AM 42.2442 -73.4958 263° West 259 298 28,000 98 Climbing Boston Center
Wed 07:10:32 AM 42.2322 -73.6136 262° West 299 344 28,000  Level Boston Center
Wed 07:11:33 AM 42.2183 -73.7619 263° West 337 388 28,000  Level Boston Center
Wed 07:12:34 AM 42.2058 -73.8947 263° West 351 404 28,000  Level Boston Center
Wed 07:13:35 AM 42.1933 -74.0317 263° West 364 419 28,000  Level Boston Center
Wed 07:14:36 AM 42.1792 -74.1694 262° West 367 422 28,000  Level Boston Center
Wed 07:15:37 AM 42.1656 -74.3083 263° West 369 425 28,000  Level Boston Center
Wed 07:16:38 AM 42.1528 -74.4467 263° West 370 426 28,000  Level Boston Center
Wed 07:17:39 AM 42.1397 -74.5836 263° West 370 426 28,000  Level Boston Center
Wed 07:18:40 AM 42.1253 -74.7228 262° West 371 427 28,000  Level Boston Center
Wed 07:19:41 AM 42.1117 -74.8625 263° West 374 430 28,000  Level Boston Center
Wed 07:20:42 AM 42.0944 -75.0275 262° West 374 430 28,000  Level Boston Center
Wed 07:21:43 AM 42.0803 -75.1519 261° West 376 433 28,000  Level Boston Center
Wed 07:22:44 AM 42.0653 -75.2917 262° West 380 437 28,000  Level Boston Center
Wed 07:23:49 AM 42.0428 -75.4653 260° West 389 448 28,000  Level New York Center
Wed 07:24:49 AM 42.0269 -75.6036 261° West 389 448 28,000  Level New York Center
Wed 07:25:49 AM 42.0089 -75.7419 260° West 389 448 28,000  Level New York Center
Wed 07:26:49 AM 41.9881 -75.8856 259° West 389 448 28,000  Level New York Center
Wed 07:27:49 AM 41.9717 -76.0208 261° West 389 448 28,000  Level New York Center
Wed 07:28:49 AM 41.9531 -76.1589 260° West 389 448 28,000  Level New York Center
Wed 07:29:49 AM 41.9342 -76.2994 260° West 389 448 28,000  Level New York Center
Wed 07:30:49 AM 41.9153 -76.4344 259° West 389 448 28,000 -600 Level New York Center
Wed 07:31:49 AM 41.8961 -76.5722 259° West 384 442 26,800 -1,350 Descending New York Center
Wed 07:32:49 AM 41.8792 -76.7072 260° West 384 442 25,300 -1,300 Descending New York Center
Wed 07:33:49 AM 41.8625 -76.8131 258° West 363 418 24,200 -645 Descending Cleveland Center
Wed 07:34:50 AM 41.8406 -76.9719 260° West 361 415 24,000 -98 Descending Cleveland Center
Wed 07:35:52 AM 41.8206 -77.1053 259° West 362 417 24,000  Level Cleveland Center
Wed 07:36:53 AM 41.7789 -77.2328 246° West 373 429 24,000  Level Cleveland Center
Wed 07:37:55 AM 41.7342 -77.3575 244° Southwest 372 428 24,000  Level Cleveland Center
Wed 07:38:57 AM 41.6889 -77.4844 245° Southwest 372 428 24,000  Level Cleveland Center
Wed 07:39:58 AM 41.6403 -77.6219 245° Southwest 381 438 24,000 -49 Level Cleveland Center
Wed 07:41:00 AM 41.5942 -77.7461 244° Southwest 379 436 23,900 -532 Descending Cleveland Center
Wed 07:42:02 AM 41.5511 -77.8769 246° West 383 441 22,900 -927 Descending Cleveland Center
Wed 07:43:03 AM 41.5061 -78.0019 244° Southwest 381 438 22,000 -439 Descending Cleveland Center
Wed 07:44:05 AM 41.4636 -78.1258 245° Southwest 373 429 22,000  Level Cleveland Center
Wed 07:45:06 AM 41.4106 -78.2744 245° Southwest 373 429 22,000  Level Cleveland Center
Wed 07:46:08 AM 41.3725 -78.3831 245° Southwest 374 430 22,000  Level Cleveland Center
Wed 07:47:09 AM 41.3267 -78.5086 244° Southwest 375 432 22,000  Level Cleveland Center
Wed 07:48:11 AM 41.2733 -78.6597 245° Southwest 377 434 22,000  Level Cleveland Center
Wed 07:49:13 AM 41.2281 -78.7850 244° Southwest 377 434 22,000 -390 Level Cleveland Center
Wed 07:50:14 AM 41.1831 -78.9108 245° Southwest 378 435 21,200 -1,268 Descending Cleveland Center
Wed 07:51:16 AM 41.1372 -79.0367 244° Southwest 363 418 19,400 -1,659 Descending Cleveland Center
Wed 07:52:17 AM 41.0983 -79.1456 245° Southwest 353 406 17,800 -1,463 Descending Cleveland Center
Wed 07:53:19 AM 41.0564 -79.2578 244° Southwest 344 396 16,400 -1,366 Descending Cleveland Center
Wed 07:54:20 AM 41.0139 -79.3753 244° Southwest 351 404 15,000 -1,415 Descending Cleveland Center
Wed 07:55:22 AM 40.9731 -79.4856 244° Southwest 341 392 13,500 -1,597 Descending Cleveland Center
Wed 07:56:24 AM 40.9261 -79.6156 244° Southwest 329 379 11,700 -1,610 Descending Cleveland Center
Wed 07:57:25 AM 40.8853 -79.7231 243° Southwest 329 379 10,200 -878 Descending Cleveland Center
Wed 07:58:27 AM 40.8381 -79.8144 236° Southwest 310 357 9,900 -732 Descending Cleveland Center
Wed 07:59:28 AM 40.7658 -79.8539 202° Southwest 284 327 8,700 -1,220 Descending Cleveland Center
Wed 08:00:30 AM 40.6939 -79.8950 203° Southwest 283 326 7,400 -1,258 Descending Cleveland Center
Wed 08:01:32 AM 40.6294 -79.9336 204° Southwest 259 298 6,100 -1,258 Descending Cleveland Center
Wed 08:02:34 AM 40.5678 -79.9750 207° Southwest 255 293 4,800 -1,463 Descending Cleveland Center
Wed 08:03:35 AM 40.5086 -80.0408 220° Southwest 233 268 3,100 -927 Descending Cleveland Center
Wed 08:04:37 AM 40.4822 -80.0961 238° Southwest 197 227 2,900 -435 Descending Cleveland Center
Wed 08:05:39 AM 40.4839 -80.1428 273° West 147 169 2,200 -683 Descending Cleveland Center
Wed 08:06:40 AM 40.4853 -80.1897 272° West 136 157 1,500 -689 Descending Cleveland Center
Wed 08:08:00 AM 40.4833 -80.2167 270° West  Level FlightAware Approximate
Wed 08:15:00 AM 40.4914 -80.2327 270° West  Level Estimated

Login

Don't have an account? Register now (free) for customized features, flight alerts, and more!